Time;durP1;ratioP1;P1;durP2;ratioP2;P2;SDS_P1;SDS_P2;PMS_P1;PMS_P2;Temp;Humidity;BMP_temperature;BMP_pressure;BME280_temperature;BME280_humidity;BME280_pressure;Samples;Min_cycle;Max_cycle;Signal;HPM_P1;HPM_P2
2021/11/07 00:00:44;;;;;;;98.35;50.97;;;;;;;-0.59;100.00;99770.41;2105064;28;20253;-75
2021/11/07 00:02:01;;;;;;;90.95;50.15;;;;;;;-0.61;100.00;99772.44;2105453;28;20309;-75
2021/11/07 00:03:08;;;;;;;92.72;52.35;;;;;;;-0.64;100.00;99777.28;2105103;28;20245;-75
2021/11/07 00:04:21;;;;;;;96.40;52.90;;;;;;;-0.67;100.00;99769.81;2104841;28;20225;-75
2021/11/07 00:05:29;;;;;;;100.15;52.25;;;;;;;-0.70;100.00;99767.59;2105020;28;20241;-73
2021/11/07 00:06:33;;;;;;;91.50;50.97;;;;;;;-0.71;100.00;99771.22;2105169;28;20299;-75
2021/11/07 00:07:47;;;;;;;93.22;52.78;;;;;;;-0.76;100.00;99764.00;2105463;28;20308;-75
2021/11/07 00:08:55;;;;;;;97.60;52.55;;;;;;;-0.78;100.00;99760.78;2096731;28;20305;-75
2021/11/07 00:10:04;;;;;;;93.45;52.85;;;;;;;-0.80;100.00;99762.78;2096436;28;20276;-75
2021/11/07 00:11:08;;;;;;;98.28;50.80;;;;;;;-0.82;100.00;99758.75;2095719;28;20249;-75
2021/11/07 00:12:14;;;;;;;96.97;52.58;;;;;;;-0.84;100.00;99763.41;2087919;28;20301;-75
2021/11/07 00:13:19;;;;;;;108.55;54.00;;;;;;;-0.88;100.00;99755.13;2088765;28;20230;-75
2021/11/07 00:14:22;;;;;;;98.95;51.88;;;;;;;-0.89;100.00;99756.16;2088335;28;20226;-75
2021/11/07 00:15:24;;;;;;;92.93;50.05;;;;;;;-0.90;100.00;99752.72;2087642;28;20233;-74
2021/11/07 00:16:27;;;;;;;111.47;56.25;;;;;;;-0.92;100.00;99754.75;2096209;28;20233;-74
2021/11/07 00:17:31;;;;;;;99.63;51.60;;;;;;;-0.93;100.00;99749.72;2096869;28;20704;-74
2021/11/07 00:18:36;;;;;;;102.63;52.80;;;;;;;-0.95;100.00;99763.03;2095620;28;20727;-75
2021/11/07 00:19:41;;;;;;;99.80;54.33;;;;;;;-0.96;100.00;99764.00;2104417;28;20237;-74
2021/11/07 00:20:55;;;;;;;101.03;54.65;;;;;;;-0.96;100.00;99750.13;2105175;28;20747;-75
2021/11/07 00:22:04;;;;;;;107.72;53.67;;;;;;;-0.97;100.00;99744.06;2104746;28;20216;-74
2021/11/07 00:23:14;;;;;;;97.43;54.28;;;;;;;-0.96;100.00;99743.06;2103892;28;20240;-76
2021/11/07 00:24:19;;;;;;;94.78;52.20;;;;;;;-0.97;100.00;99740.66;2096906;28;20712;-75
2021/11/07 00:25:26;;;;;;;94.50;53.10;;;;;;;-0.99;100.00;99738.25;2104534;28;20221;-75
2021/11/07 00:26:30;;;;;;;98.00;53.75;;;;;;;-0.99;100.00;99737.44;2096600;28;20236;-75
2021/11/07 00:27:35;;;;;;;91.60;51.47;;;;;;;-0.98;100.00;99736.44;2096170;28;20236;-75
2021/11/07 00:28:39;;;;;;;83.90;49.13;;;;;;;-0.99;100.00;99726.97;2096209;28;20313;-75
2021/11/07 00:29:49;;;;;;;91.53;49.70;;;;;;;-0.98;100.00;99731.19;2096518;28;20326;-75
2021/11/07 00:30:56;;;;;;;90.78;51.70;;;;;;;-1.00;100.00;99727.97;2096763;28;20696;-77
2021/11/07 00:32:05;;;;;;;90.57;51.22;;;;;;;-1.04;100.00;99721.50;2104057;28;20221;-78
2021/11/07 00:33:17;;;;;;;101.18;54.72;;;;;;;-1.02;100.00;99732.63;2103308;28;20240;-78
2021/11/07 00:34:43;;;;;;;101.13;52.40;;;;;;;-1.04;100.00;99727.59;2104871;28;20638;-78
2021/11/07 00:36:11;;;;;;;93.88;51.30;;;;;;;-1.05;100.00;99717.28;2103623;28;20221;-77
2021/11/07 00:37:14;;;;;;;95.13;49.88;;;;;;;-1.07;100.00;99717.50;2098899;28;20229;-76
2021/11/07 00:38:16;;;;;;;92.47;50.67;;;;;;;-1.08;100.00;99722.94;2095888;28;20232;-77
2021/11/07 00:39:21;;;;;;;98.93;52.75;;;;;;;-1.08;100.00;99717.72;2104454;28;20557;-76
2021/11/07 00:40:27;;;;;;;99.97;53.70;;;;;;;-1.09;100.00;99710.88;2095399;28;20603;-76
2021/11/07 00:41:35;;;;;;;100.05;52.03;;;;;;;-1.07;100.00;99714.09;2087960;28;20218;-76
2021/11/07 00:42:46;;;;;;;94.13;51.42;;;;;;;-1.12;100.00;99706.06;2096235;28;20620;-77
2021/11/07 00:43:53;;;;;;;90.05;51.83;;;;;;;-1.10;100.00;99714.50;2096624;28;20245;-77
2021/11/07 00:44:57;;;;;;;91.90;50.03;;;;;;;-1.11;100.00;99712.88;2096406;28;20222;-77
2021/11/07 00:46:08;;;;;;;99.55;53.10;;;;;;;-1.06;100.00;99711.25;2096041;28;20572;-77
2021/11/07 00:47:22;;;;;;;98.70;51.67;;;;;;;-1.08;100.00;99715.09;2104194;28;20260;-77
2021/11/07 00:48:30;;;;;;;93.60;51.92;;;;;;;-1.10;100.00;99712.69;2103883;28;20244;-76
2021/11/07 00:49:36;;;;;;;93.65;51.38;;;;;;;-1.11;100.00;99713.69;2096856;28;20700;-77
2021/11/07 00:50:48;;;;;;;96.70;52.95;;;;;;;-1.13;100.00;99710.44;2104095;28;20718;-77
2021/11/07 00:52:03;;;;;;;87.97;51.03;;;;;;;-1.17;100.00;99704.84;2103953;28;20761;-77
2021/11/07 00:53:17;;;;;;;89.05;52.08;;;;;;;-1.15;100.00;99713.28;2096977;28;20739;-77
2021/11/07 00:54:26;;;;;;;96.75;52.78;;;;;;;-1.18;100.00;99716.31;2097720;28;20221;-77
2021/11/07 00:55:35;;;;;;;103.35;53.58;;;;;;;-1.15;100.00;99712.47;2104098;28;20312;-77
2021/11/07 00:56:42;;;;;;;102.32;52.70;;;;;;;-1.16;100.00;99706.44;2105083;28;20225;-77
2021/11/07 00:57:51;;;;;;;95.78;52.85;;;;;;;-1.17;100.00;99702.22;2104627;28;20217;-77
2021/11/07 00:59:02;;;;;;;95.97;52.25;;;;;;;-1.19;100.00;99699.00;2104841;28;20242;-76
2021/11/07 01:00:08;;;;;;;91.53;51.20;;;;;;;-1.20;100.00;99692.16;2103927;28;20228;-77
2021/11/07 01:01:12;;;;;;;91.47;50.58;;;;;;;-1.20;100.00;99694.78;2096258;28;20722;-77
2021/11/07 01:02:15;;;;;;;101.53;52.00;;;;;;;-1.23;100.00;99695.16;2104279;28;20295;-77
2021/11/07 01:03:20;;;;;;;89.63;50.28;;;;;;;-1.22;100.00;99690.72;2095512;28;20229;-77
2021/11/07 01:04:23;;;;;;;100.78;51.85;;;;;;;-1.22;100.00;99685.50;2095770;28;20261;-75
2021/11/07 01:05:27;;;;;;;95.75;52.00;;;;;;;-1.25;100.00;99686.72;2104331;28;20247;-77
2021/11/07 01:06:28;;;;;;;96.20;53.85;;;;;;;-1.25;100.00;99684.09;2105106;28;20235;-77
2021/11/07 01:07:30;;;;;;;95.50;53.37;;;;;;;-1.24;100.00;99683.09;2105098;28;20221;-77
2021/11/07 01:08:30;;;;;;;92.25;51.95;;;;;;;-1.24;100.00;99685.69;2104277;28;20691;-77
2021/11/07 01:09:34;;;;;;;91.90;51.97;;;;;;;-1.25;100.00;99676.25;2095950;28;20560;-77
2021/11/07 01:10:36;;;;;;;93.95;52.55;;;;;;;-1.24;100.00;99685.69;2095973;28;20681;-77
2021/11/07 01:11:38;;;;;;;103.47;54.08;;;;;;;-1.23;100.00;99683.88;2104434;28;20229;-77
2021/11/07 01:12:39;;;;;;;103.47;55.45;;;;;;;-1.24;100.00;99677.84;2104694;28;20282;-76
2021/11/07 01:13:41;;;;;;;97.35;52.13;;;;;;;-1.23;100.00;99679.47;2104983;28;20237;-76
2021/11/07 01:14:42;;;;;;;94.47;51.65;;;;;;;-1.23;100.00;99673.41;2105011;28;20281;-77
2021/11/07 01:15:43;;;;;;;96.22;51.55;;;;;;;-1.26;100.00;99671.22;2105113;28;20224;-77
2021/11/07 01:16:45;;;;;;;94.50;53.03;;;;;;;-1.26;100.00;99669.41;2105084;28;20300;-76
2021/11/07 01:17:48;;;;;;;94.90;53.30;;;;;;;-1.27;100.00;99673.03;2103815;28;20751;-77
2021/11/07 01:18:50;;;;;;;92.13;50.38;;;;;;;-1.27;100.00;99662.56;2090935;28;20256;-76
2021/11/07 01:19:54;;;;;;;95.50;54.50;;;;;;;-1.28;100.00;99663.56;2093183;28;20222;-76
2021/11/07 01:20:57;;;;;;;91.57;50.30;;;;;;;-1.29;100.00;99658.56;2098644;28;20254;-77
2021/11/07 01:22:00;;;;;;;93.72;51.47;;;;;;;-1.30;100.00;99662.97;2097432;28;20287;-76
2021/11/07 01:23:12;;;;;;;97.22;52.03;;;;;;;-1.31;100.00;99655.31;2098210;28;20221;-76
2021/11/07 01:24:17;;;;;;;96.68;53.25;;;;;;;-1.33;100.00;99655.53;2106241;28;20224;-76
2021/11/07 01:25:19;;;;;;;93.22;51.50;;;;;;;-1.33;100.00;99647.66;2106609;28;20304;-77
2021/11/07 01:26:23;;;;;;;98.28;52.08;;;;;;;-1.37;100.00;99645.69;2106498;28;20217;-76
2021/11/07 01:27:29;;;;;;;104.05;54.15;;;;;;;-1.37;100.00;99640.44;2104692;28;20221;-76
2021/11/07 01:28:37;;;;;;;103.22;54.50;;;;;;;-1.35;100.00;99646.28;2090685;28;20688;-77
2021/11/07 01:29:41;;;;;;;97.88;52.13;;;;;;;-1.37;100.00;99638.63;2105626;28;20260;-75
2021/11/07 01:30:48;;;;;;;95.10;52.10;;;;;;;-1.38;100.00;99639.63;2105802;28;20304;-76
2021/11/07 01:31:53;;;;;;;92.55;53.47;;;;;;;-1.40;100.00;99636.41;2089938;28;20628;-78
2021/11/07 01:33:00;;;;;;;98.53;53.45;;;;;;;-1.41;100.00;99626.94;2092551;28;20238;-76
2021/11/07 01:34:02;;;;;;;101.75;53.00;;;;;;;-1.40;100.00;99636.41;2091242;28;20669;-76
2021/11/07 01:35:11;;;;;;;90.10;51.88;;;;;;;-1.39;100.00;99632.81;2097518;28;20221;-76
2021/11/07 01:36:28;;;;;;;92.38;52.45;;;;;;;-1.42;100.00;99638.41;2096971;28;20309;-76
2021/11/07 01:37:35;;;;;;;97.35;52.08;;;;;;;-1.42;100.00;99638.41;2091046;28;20273;-77
2021/11/07 01:38:41;;;;;;;95.28;53.78;;;;;;;-1.38;100.00;99636.22;2097548;28;20249;-76
2021/11/07 01:39:48;;;;;;;99.95;54.05;;;;;;;-1.33;100.00;99645.06;2103906;28;20406;-76
2021/11/07 01:40:58;;;;;;;97.57;54.70;;;;;;;-1.31;100.00;99629.13;2097652;28;20566;-77
2021/11/07 01:42:06;;;;;;;100.70;54.25;;;;;;;-1.33;100.00;99637.19;2090723;28;20222;-76
2021/11/07 01:43:07;;;;;;;105.55;55.38;;;;;;;-1.34;100.00;99630.34;2101348;28;20236;-75
2021/11/07 01:44:09;;;;;;;97.57;53.63;;;;;;;-1.33;100.00;99634.56;2097546;28;20226;-77
2021/11/07 01:45:14;;;;;;;91.32;52.78;;;;;;;-1.36;100.00;99619.28;2097964;28;20584;-77
2021/11/07 01:46:25;;;;;;;98.13;53.85;;;;;;;-1.35;100.00;99627.94;2097966;28;20250;-76
2021/11/07 01:47:27;;;;;;;101.93;54.72;;;;;;;-1.37;100.00;99615.06;2103868;28;20240;-77
2021/11/07 01:48:32;;;;;;;100.90;52.15;;;;;;;-1.36;100.00;99634.19;2105804;28;20593;-76
2021/11/07 01:49:37;;;;;;;100.97;53.95;;;;;;;-1.39;100.00;99632.81;2098584;28;20274;-76
2021/11/07 01:50:45;;;;;;;101.05;53.40;;;;;;;-1.40;100.00;99639.00;2097673;28;20256;-76
2021/11/07 01:51:47;;;;;;;102.28;54.10;;;;;;;-1.36;100.00;99639.44;2098009;28;20222;-77
2021/11/07 01:52:56;;;;;;;113.45;57.53;;;;;;;-1.30;100.00;99631.56;2096728;28;20218;-77
2021/11/07 01:54:06;;;;;;;95.20;54.75;;;;;;;-1.26;100.00;99638.00;2097618;28;20696;-76
2021/11/07 01:55:08;;;;;;;102.35;55.47;;;;;;;-1.23;100.00;99640.19;2105290;28;20236;-75
2021/11/07 01:56:11;;;;;;;110.38;56.67;;;;;;;-1.18;100.00;99636.97;2104744;28;20308;-76
2021/11/07 01:57:13;;;;;;;114.68;59.17;;;;;;;-1.14;100.00;99627.69;2105634;28;20256;-77
2021/11/07 01:58:13;;;;;;;110.65;57.65;;;;;;;-1.14;100.00;99623.25;2105032;28;20228;-77
2021/11/07 01:59:15;;;;;;;113.90;59.13;;;;;;;-1.08;100.00;99631.31;2105554;28;20802;-76
2021/11/07 02:00:18;;;;;;;109.22;56.78;;;;;;;-1.05;100.00;99625.66;2106232;28;20225;-77
2021/11/07 02:01:24;;;;;;;105.97;57.75;;;;;;;-1.05;100.00;99626.44;2106311;28;20362;-77
2021/11/07 02:02:27;;;;;;;103.78;56.95;;;;;;;-1.06;100.00;99616.19;2105013;28;20675;-76
2021/11/07 02:03:29;;;;;;;104.45;55.30;;;;;;;-1.04;100.00;99622.00;2105581;28;20349;-76
2021/11/07 02:04:30;;;;;;;109.80;58.17;;;;;;;-1.06;100.00;99624.03;2106184;28;20218;-76
2021/11/07 02:05:32;;;;;;;98.90;53.23;;;;;;;-1.07;100.00;99625.84;2106393;28;20237;-76
2021/11/07 02:06:34;;;;;;;91.63;54.50;;;;;;;-1.10;100.00;99622.84;2106306;28;20300;-77
2021/11/07 02:07:36;;;;;;;97.97;53.47;;;;;;;-1.15;100.00;99611.19;2104960;28;20586;-77
2021/11/07 02:08:37;;;;;;;102.40;53.10;;;;;;;-1.18;100.00;99614.22;2104998;28;20259;-76
2021/11/07 02:09:39;;;;;;;97.53;52.60;;;;;;;-1.23;100.00;99615.81;2105319;28;20229;-76
2021/11/07 02:10:41;;;;;;;105.75;56.67;;;;;;;-1.25;100.00;99602.16;2105518;28;20598;-76
2021/11/07 02:11:43;;;;;;;102.82;57.15;;;;;;;-1.19;100.00;99610.00;2104975;28;20603;-76
2021/11/07 02:12:47;;;;;;;101.60;56.65;;;;;;;-1.15;100.00;99602.53;2105435;28;20221;-76
2021/11/07 02:13:50;;;;;;;110.63;56.95;;;;;;;-1.09;100.00;99606.94;2105181;28;20780;-77
2021/11/07 02:14:52;;;;;;;117.25;57.42;;;;;;;-1.04;100.00;99594.03;2096817;28;20214;-76
2021/11/07 02:15:54;;;;;;;122.93;62.60;;;;;;;-0.96;100.00;99601.63;2105037;28;20706;-75
2021/11/07 02:16:56;;;;;;;122.85;64.97;;;;;;;-0.91;100.00;99587.94;2105588;28;20241;-75
2021/11/07 02:17:57;;;;;;;127.00;65.93;;;;;;;-0.88;100.00;99582.28;2105475;28;20229;-76
2021/11/07 02:18:58;;;;;;;129.37;66.77;;;;;;;-0.86;100.00;99581.06;2096857;28;20742;-76
2021/11/07 02:20:01;;;;;;;137.45;67.57;;;;;;;-0.81;100.00;99584.88;2096328;28;20733;-75
2021/11/07 02:21:07;;;;;;;124.47;65.65;;;;;;;-0.80;100.00;99581.22;2105510;28;20228;-76
2021/11/07 02:22:08;;;;;;;121.20;63.65;;;;;;;-0.77;100.00;99584.25;2104893;28;20548;-77
2021/11/07 02:23:13;;;;;;;127.60;66.00;;;;;;;-0.79;100.00;99586.25;2096871;28;20252;-77
2021/11/07 02:24:16;;;;;;;127.75;66.50;;;;;;;-0.73;100.00;99590.66;2097060;28;20222;-77
2021/11/07 02:25:18;;;;;;;134.68;65.80;;;;;;;-0.74;100.00;99591.69;2096850;28;20708;-77
2021/11/07 02:26:20;;;;;;;133.07;67.60;;;;;;;-0.73;100.00;99593.28;2096681;28;20692;-77
2021/11/07 02:27:23;;;;;;;131.60;69.57;;;;;;;-0.72;100.00;99591.47;2105377;28;20227;-77
2021/11/07 02:28:31;;;;;;;125.95;68.82;;;;;;;-0.74;100.00;99586.44;2105044;28;20221;-75
2021/11/07 02:29:36;;;;;;;130.20;67.65;;;;;;;-0.80;100.00;99589.91;2105823;28;20573;-77
2021/11/07 02:30:39;;;;;;;142.52;69.70;;;;;;;-0.78;100.00;99592.28;2097343;28;20312;-76
2021/11/07 02:31:42;;;;;;;144.02;70.07;;;;;;;-0.78;100.00;99593.13;2096216;28;20230;-77
2021/11/07 02:32:43;;;;;;;143.55;72.20;;;;;;;-0.79;100.00;99598.56;2097056;28;20288;-77
2021/11/07 02:33:45;;;;;;;143.05;72.63;;;;;;;-0.82;100.00;99601.59;2097690;28;20226;-76
2021/11/07 02:34:46;;;;;;;145.35;74.32;;;;;;;-0.80;100.00;99602.19;2096213;28;20215;-77
2021/11/07 02:35:48;;;;;;;137.32;70.25;;;;;;;-0.80;100.00;99597.75;2096850;28;20226;-77
2021/11/07 02:36:51;;;;;;;140.38;70.95;;;;;;;-0.80;100.00;99596.94;2096383;28;20322;-77
2021/11/07 02:37:53;;;;;;;138.38;73.22;;;;;;;-0.81;100.00;99588.28;2094459;28;20617;-75
2021/11/07 02:38:54;;;;;;;143.35;71.65;;;;;;;-0.77;100.00;99592.13;2105202;28;20719;-76
2021/11/07 02:39:56;;;;;;;141.23;72.50;;;;;;;-0.79;100.00;99591.50;2105120;28;20630;-77
2021/11/07 02:40:59;;;;;;;139.65;73.32;;;;;;;-0.80;100.00;99592.50;2105227;28;20706;-77
2021/11/07 02:42:01;;;;;;;151.27;71.28;;;;;;;-0.66;100.00;99594.06;2105900;28;20214;-77
2021/11/07 02:43:03;;;;;;;137.57;71.70;;;;;;;-0.69;100.00;99591.06;2104591;28;20378;-76
2021/11/07 02:44:05;;;;;;;134.23;70.57;;;;;;;-0.72;100.00;99587.03;2096113;28;20222;-76
2021/11/07 02:45:07;;;;;;;133.68;72.28;;;;;;;-0.71;100.00;99588.63;2096794;28;21022;-77
2021/11/07 02:46:15;;;;;;;131.63;69.30;;;;;;;-0.71;100.00;99580.78;2104790;28;20641;-76
2021/11/07 02:47:17;;;;;;;130.52;68.80;;;;;;;-0.69;100.00;99591.88;2105964;28;20218;-77
2021/11/07 02:48:18;;;;;;;145.45;71.20;;;;;;;-0.68;100.00;99577.75;2104458;28;20243;-77
2021/11/07 02:49:19;;;;;;;137.32;69.63;;;;;;;-0.62;100.00;99584.75;2096446;28;20218;-77
2021/11/07 02:50:21;;;;;;;137.93;71.13;;;;;;;-0.64;100.00;99583.38;2104919;28;20226;-77
2021/11/07 02:51:24;;;;;;;137.68;71.03;;;;;;;-0.66;100.00;99588.81;2097084;28;20229;-75
2021/11/07 02:52:27;;;;;;;144.98;72.47;;;;;;;-0.66;100.00;99578.34;2097414;28;20647;-77
2021/11/07 02:53:28;;;;;;;144.55;70.80;;;;;;;-0.64;100.00;99584.16;2096629;28;20275;-76
2021/11/07 02:54:30;;;;;;;141.43;71.53;;;;;;;-0.66;100.00;99574.94;2088306;28;20794;-77
2021/11/07 02:55:31;;;;;;;137.82;68.00;;;;;;;-0.68;100.00;99572.50;2096771;28;20222;-77
2021/11/07 02:56:32;;;;;;;137.95;69.88;;;;;;;-0.72;100.00;99573.94;2096497;28;20222;-77
2021/11/07 02:57:33;;;;;;;128.82;70.53;;;;;;;-0.74;100.00;99573.34;2087834;28;20227;-77
2021/11/07 02:58:35;;;;;;;135.23;70.47;;;;;;;-0.77;100.00;99565.91;2096739;28;20226;-77
2021/11/07 02:59:39;;;;;;;128.02;69.30;;;;;;;-0.80;100.00;99563.69;2096701;28;20320;-77
2021/11/07 03:00:41;;;;;;;114.18;63.90;;;;;;;-0.84;100.00;99562.53;2102833;28;20294;-77
2021/11/07 03:01:42;;;;;;;117.05;61.13;;;;;;;-0.88;100.00;99559.50;2105981;28;20304;-77
2021/11/07 03:02:45;;;;;;;110.90;60.03;;;;;;;-0.92;100.00;99553.09;2104760;28;20694;-77
2021/11/07 03:03:47;;;;;;;111.18;60.35;;;;;;;-0.95;100.00;99550.91;2105047;28;20229;-76
2021/11/07 03:04:49;;;;;;;105.00;57.15;;;;;;;-0.99;100.00;99543.66;2105620;28;20221;-76
2021/11/07 03:05:50;;;;;;;103.18;55.50;;;;;;;-1.05;100.00;99542.66;2104282;28;20591;-77
2021/11/07 03:06:52;;;;;;;109.57;58.27;;;;;;;-1.09;100.00;99545.91;2105024;28;20222;-77
2021/11/07 03:07:54;;;;;;;108.07;57.58;;;;;;;-1.17;100.00;99534.66;2105381;28;20462;-77
2021/11/07 03:08:58;;;;;;;119.03;63.58;;;;;;;-1.19;100.00;99538.50;2105025;28;20257;-76
2021/11/07 03:10:00;;;;;;;111.15;59.38;;;;;;;-1.22;100.00;99537.09;2105033;28;20241;-76
2021/11/07 03:11:02;;;;;;;116.60;60.25;;;;;;;-1.25;100.00;99534.09;2105795;28;20217;-77
2021/11/07 03:12:04;;;;;;;126.55;63.25;;;;;;;-1.27;100.00;99531.69;2104628;28;20711;-77
2021/11/07 03:13:08;;;;;;;117.38;61.30;;;;;;;-1.29;100.00;99528.47;2096581;28;20226;-77
2021/11/07 03:14:12;;;;;;;109.20;55.65;;;;;;;-1.31;100.00;99519.22;2104609;28;20221;-77
2021/11/07 03:15:14;;;;;;;102.85;55.92;;;;;;;-1.35;100.00;99508.38;2105602;28;20217;-76
2021/11/07 03:16:15;;;;;;;111.32;61.67;;;;;;;-1.34;100.00;99515.19;2105748;28;20209;-76
2021/11/07 03:17:20;;;;;;;123.60;61.33;;;;;;;-1.35;100.00;99515.41;2104936;28;20642;-77
2021/11/07 03:18:21;;;;;;;118.82;63.17;;;;;;;-1.31;100.00;99516.59;2096930;28;20708;-77
2021/11/07 03:19:25;;;;;;;121.50;61.83;;;;;;;-1.27;100.00;99529.06;2105000;28;20615;-77
2021/11/07 03:20:25;;;;;;;121.53;61.70;;;;;;;-1.28;100.00;99517.00;2096847;28;20316;-76
2021/11/07 03:21:28;;;;;;;119.47;62.77;;;;;;;-1.24;100.00;99530.47;2097265;28;21775;-77
2021/11/07 03:22:29;;;;;;;124.47;62.85;;;;;;;-1.23;100.00;99529.44;2097189;28;20210;-77
2021/11/07 03:23:36;;;;;;;118.47;62.03;;;;;;;-1.25;100.00;99524.44;2095864;28;20225;-77
2021/11/07 03:24:40;;;;;;;113.15;60.20;;;;;;;-1.20;100.00;99532.47;2090438;28;20226;-76
2021/11/07 03:25:48;;;;;;;112.20;60.50;;;;;;;-1.22;100.00;99531.84;2088489;28;20284;-76
2021/11/07 03:26:49;;;;;;;124.95;62.30;;;;;;;-1.23;100.00;99524.22;2094701;28;20279;-77
2021/11/07 03:27:51;;;;;;;115.82;60.35;;;;;;;-1.25;100.00;99521.81;2104880;28;20247;-77
2021/11/07 03:28:57;;;;;;;111.15;57.72;;;;;;;-1.30;100.00;99513.00;2103581;28;20658;-76
2021/11/07 03:30:05;;;;;;;101.38;55.85;;;;;;;-1.29;100.00;99528.47;2096561;28;20781;-77
2021/11/07 03:31:09;;;;;;;111.43;58.58;;;;;;;-1.31;100.00;99521.81;2105034;28;20617;-76
2021/11/07 03:32:16;;;;;;;106.65;57.60;;;;;;;-1.36;100.00;99517.22;2103958;28;20221;-77
2021/11/07 03:33:22;;;;;;;101.97;56.88;;;;;;;-1.38;100.00;99511.41;2104844;28;20233;-76
2021/11/07 03:34:28;;;;;;;103.65;55.45;;;;;;;-1.42;100.00;99512.81;2104251;28;20361;-77
2021/11/07 03:35:31;;;;;;;105.18;56.45;;;;;;;-1.43;100.00;99519.84;2096942;28;20575;-76
2021/11/07 03:36:43;;;;;;;113.68;59.72;;;;;;;-1.48;100.00;99514.47;2104884;28;20236;-77
2021/11/07 03:37:55;;;;;;;105.88;57.78;;;;;;;-1.44;100.00;99523.50;2104300;28;20224;-77
2021/11/07 03:38:58;;;;;;;112.18;58.92;;;;;;;-1.47;100.00;99510.84;2090581;28;20222;-76
2021/11/07 03:40:00;;;;;;;110.78;58.33;;;;;;;-1.49;100.00;99507.59;2088213;28;20238;-77
2021/11/07 03:41:02;;;;;;;109.70;58.85;;;;;;;-1.46;100.00;99509.00;2096063;28;20228;-77
2021/11/07 03:42:06;;;;;;;113.60;58.55;;;;;;;-1.47;100.00;99510.03;2096654;28;20576;-76
2021/11/07 03:43:08;;;;;;;110.60;57.50;;;;;;;-1.41;100.00;99509.19;2095897;28;20228;-75
2021/11/07 03:44:09;;;;;;;111.88;57.40;;;;;;;-1.40;100.00;99513.41;2096250;28;20793;-75
2021/11/07 03:45:13;;;;;;;97.93;53.85;;;;;;;-1.35;100.00;99507.56;2096997;28;20229;-77
2021/11/07 03:46:15;;;;;;;116.57;60.50;;;;;;;-1.28;100.00;99506.53;2096088;28;20301;-76
2021/11/07 03:47:17;;;;;;;112.97;59.92;;;;;;;-1.28;100.00;99505.72;2095620;28;20292;-76
2021/11/07 03:48:18;;;;;;;113.18;60.97;;;;;;;-1.26;100.00;99496.66;2104575;28;20759;-76
2021/11/07 03:49:20;;;;;;;115.10;62.40;;;;;;;-1.24;100.00;99496.44;2105458;28;20634;-76
2021/11/07 03:50:21;;;;;;;118.20;61.47;;;;;;;-1.17;100.00;99502.44;2104691;28;20290;-76
2021/11/07 03:51:27;;;;;;;122.83;62.97;;;;;;;-1.09;100.00;99502.22;2104324;28;20225;-74
2021/11/07 03:52:28;;;;;;;107.97;58.53;;;;;;;-1.08;100.00;99503.00;2105310;28;20794;-76
2021/11/07 03:53:31;;;;;;;118.88;60.47;;;;;;;-1.08;100.00;99495.16;2105435;28;20244;-77
2021/11/07 03:54:33;;;;;;;111.10;60.33;;;;;;;-1.06;100.00;99490.50;2104561;28;20792;-76
2021/11/07 03:55:35;;;;;;;110.57;58.70;;;;;;;-1.01;100.00;99488.88;2104502;28;20278;-76
2021/11/07 03:56:35;;;;;;;116.88;60.47;;;;;;;-1.00;100.00;99489.69;2105462;28;20221;-77
2021/11/07 03:57:37;;;;;;;115.67;60.03;;;;;;;-0.98;100.00;99483.22;2104613;28;20225;-76
2021/11/07 03:58:38;;;;;;;129.95;64.55;;;;;;;-0.90;100.00;99498.69;2104146;28;20293;-75
2021/11/07 03:59:43;;;;;;;121.87;63.63;;;;;;;-0.85;100.00;99490.19;2096255;28;20242;-77
2021/11/07 04:00:44;;;;;;;113.90;61.67;;;;;;;-0.81;100.00;99490.56;2104570;28;20474;-77
2021/11/07 04:01:46;;;;;;;123.25;62.33;;;;;;;-0.76;100.00;99496.78;2105358;28;20278;-77
2021/11/07 04:02:48;;;;;;;116.18;60.92;;;;;;;-0.73;100.00;99493.72;2105394;28;20232;-77
2021/11/07 04:03:50;;;;;;;112.90;61.65;;;;;;;-0.72;100.00;99495.34;2104190;28;20306;-78
2021/11/07 04:04:51;;;;;;;117.57;60.58;;;;;;;-0.69;100.00;99500.19;2096362;28;20214;-78
2021/11/07 04:05:52;;;;;;;115.37;60.77;;;;;;;-0.64;100.00;99496.91;2104685;28;20718;-78
2021/11/07 04:06:53;;;;;;;120.68;61.45;;;;;;;-0.65;100.00;99497.91;2104104;28;20305;-75
2021/11/07 04:07:56;;;;;;;117.25;61.80;;;;;;;-0.64;100.00;99502.16;2104638;28;20227;-75
2021/11/07 04:08:57;;;;;;;117.45;63.35;;;;;;;-0.63;100.00;99501.94;2105217;28;20237;-74
2021/11/07 04:10:00;;;;;;;127.63;64.40;;;;;;;-0.61;100.00;99497.31;2104008;28;20221;-77
2021/11/07 04:11:01;;;;;;;127.25;65.68;;;;;;;-0.52;100.00;99503.09;2096177;28;20305;-78
2021/11/07 04:12:04;;;;;;;119.90;64.07;;;;;;;-0.46;100.00;99498.78;2095881;28;20230;-78
2021/11/07 04:13:05;;;;;;;126.57;65.68;;;;;;;-0.40;100.00;99495.31;2096063;28;20249;-75
2021/11/07 04:14:11;;;;;;;128.57;65.72;;;;;;;-0.39;100.00;99491.69;2104362;28;20305;-76
2021/11/07 04:15:12;;;;;;;130.35;63.42;;;;;;;-0.35;100.00;99498.09;2104965;28;20240;-77
2021/11/07 04:16:14;;;;;;;122.10;64.32;;;;;;;-0.34;100.00;99494.47;2104046;28;20229;-77
2021/11/07 04:17:15;;;;;;;122.90;63.95;;;;;;;-0.34;100.00;99497.91;2104014;28;20255;-77
2021/11/07 04:18:16;;;;;;;105.28;60.97;;;;;;;-0.31;100.00;99499.28;2096013;28;20218;-77
2021/11/07 04:19:19;;;;;;;123.82;64.75;;;;;;;-0.29;100.00;99497.25;2096097;28;20720;-78
2021/11/07 04:20:22;;;;;;;115.60;62.35;;;;;;;-0.28;100.00;99499.66;2096271;28;20582;-77
2021/11/07 04:21:24;;;;;;;123.68;63.55;;;;;;;-0.25;100.00;99498.44;2092206;28;20230;-77
2021/11/07 04:22:26;;;;;;;127.03;64.63;;;;;;;-0.21;100.00;99494.34;2095749;28;20308;-77
2021/11/07 04:23:27;;;;;;;125.25;65.60;;;;;;;-0.16;100.00;99498.97;2104581;28;20706;-77
2021/11/07 04:24:29;;;;;;;119.70;64.78;;;;;;;-0.13;100.00;99494.09;2104424;28;20221;-77
2021/11/07 04:25:33;;;;;;;126.10;64.22;;;;;;;-0.10;100.00;99493.66;2088787;28;20210;-77
2021/11/07 04:26:35;;;;;;;124.97;65.80;;;;;;;0.00;100.00;99490.56;2088008;28;20289;-77
2021/11/07 04:27:40;;;;;;;125.32;64.00;;;;;;;0.01;100.00;99486.09;2087523;28;20314;-75
2021/11/07 04:28:41;;;;;;;117.07;63.00;;;;;;;0.02;100.00;99485.09;2096135;28;20226;-77
2021/11/07 04:29:43;;;;;;;119.97;63.17;;;;;;;0.03;100.00;99491.94;2096069;28;20728;-77
2021/11/07 04:30:45;;;;;;;123.45;64.85;;;;;;;0.05;100.00;99479.41;2087333;28;20229;-77
2021/11/07 04:31:46;;;;;;;125.75;63.63;;;;;;;0.05;100.00;99466.28;2087917;28;20650;-77
2021/11/07 04:32:48;;;;;;;128.53;64.07;;;;;;;0.12;100.00;99480.13;2087790;28;20222;-77
2021/11/07 04:33:49;;;;;;;120.35;63.47;;;;;;;0.16;100.00;99478.66;2096053;28;20218;-77
2021/11/07 04:34:52;;;;;;;117.72;60.05;;;;;;;0.18;100.00;99477.47;2096756;28;20586;-77
2021/11/07 04:35:54;;;;;;;116.22;59.80;;;;;;;0.18;100.00;99477.47;2101929;28;20221;-77
2021/11/07 04:36:55;;;;;;;111.73;59.77;;;;;;;0.21;100.00;99481.47;2089222;28;20227;-77
2021/11/07 04:37:56;;;;;;;119.38;62.08;;;;;;;0.21;100.00;99478.84;2096051;28;20226;-77
2021/11/07 04:38:58;;;;;;;106.77;60.43;;;;;;;0.18;100.00;99472.22;2096783;28;20284;-77
2021/11/07 04:39:59;;;;;;;114.68;60.00;;;;;;;0.23;100.00;99479.41;2112676;28;20641;-77
2021/11/07 04:41:04;;;;;;;117.73;58.47;;;;;;;0.24;100.00;99473.13;2104150;28;20225;-77
2021/11/07 04:42:10;;;;;;;112.93;60.90;;;;;;;0.24;100.00;99473.94;2095548;28;20232;-77
2021/11/07 04:43:12;;;;;;;107.63;55.88;;;;;;;0.27;100.00;99470.09;2095446;28;20641;-77
2021/11/07 04:44:13;;;;;;;108.63;59.13;;;;;;;0.30;100.00;99472.28;2096879;28;20578;-77
2021/11/07 04:45:16;;;;;;;111.40;58.33;;;;;;;0.29;100.00;99468.06;2096785;28;20249;-77
2021/11/07 04:46:19;;;;;;;103.65;56.67;;;;;;;0.31;100.00;99476.50;2096725;28;20351;-77
2021/11/07 04:47:22;;;;;;;101.05;55.50;;;;;;;0.35;100.00;99474.22;2096756;28;20726;-78
2021/11/07 04:48:25;;;;;;;100.22;57.10;;;;;;;0.37;100.00;99467.75;2096484;28;20275;-77
2021/11/07 04:49:26;;;;;;;95.40;55.85;;;;;;;0.38;100.00;99465.94;2095729;28;20225;-77